sensor_id;sensor_type;location;lat;lon;timestamp;temperature;humidity
23291;DHT22;11814;44.686;10.842;2024-02-21T00:01:56;8.90;99.90
23291;DHT22;11814;44.686;10.842;2024-02-21T00:04:25;8.80;99.90
23291;DHT22;11814;44.686;10.842;2024-02-21T00:06:51;8.80;99.90
23291;DHT22;11814;44.686;10.842;2024-02-21T00:09:16;8.80;99.90
23291;DHT22;11814;44.686;10.842;2024-02-21T00:11:43;8.80;99.90
23291;DHT22;11814;44.686;10.842;2024-02-21T00:14:09;8.90;99.90
23291;DHT22;11814;44.686;10.842;2024-02-21T00:16:35;8.90;99.90
23291;DHT22;11814;44.686;10.842;2024-02-21T00:19:01;8.80;99.90
23291;DHT22;11814;44.686;10.842;2024-02-21T00:21:33;8.80;99.90
23291;DHT22;11814;44.686;10.842;2024-02-21T00:23:58;8.80;99.90
23291;DHT22;11814;44.686;10.842;2024-02-21T00:26:26;8.90;99.90
23291;DHT22;11814;44.686;10.842;2024-02-21T00:28:53;8.90;99.90
23291;DHT22;11814;44.686;10.842;2024-02-21T00:31:19;8.80;99.90
23291;DHT22;11814;44.686;10.842;2024-02-21T00:33:44;8.80;99.90
23291;DHT22;11814;44.686;10.842;2024-02-21T00:36:10;8.70;99.90
23291;DHT22;11814;44.686;10.842;2024-02-21T00:38:36;8.70;99.90
23291;DHT22;11814;44.686;10.842;2024-02-21T00:41:01;8.70;99.90
23291;DHT22;11814;44.686;10.842;2024-02-21T00:43:27;8.60;99.90
23291;DHT22;11814;44.686;10.842;2024-02-21T00:45:53;8.60;99.90
23291;DHT22;11814;44.686;10.842;2024-02-21T00:48:21;8.60;99.90
23291;DHT22;11814;44.686;10.842;2024-02-21T00:50:47;8.60;99.90
23291;DHT22;11814;44.686;10.842;2024-02-21T00:53:12;8.50;99.90
23291;DHT22;11814;44.686;10.842;2024-02-21T00:55:38;8.50;99.90
23291;DHT22;11814;44.686;10.842;2024-02-21T00:58:04;8.50;99.90
23291;DHT22;11814;44.686;10.842;2024-02-21T01:00:29;8.50;99.90
23291;DHT22;11814;44.686;10.842;2024-02-21T01:02:55;8.50;99.90
23291;DHT22;11814;44.686;10.842;2024-02-21T01:05:20;8.40;99.90
23291;DHT22;11814;44.686;10.842;2024-02-21T01:07:46;8.60;99.90
23291;DHT22;11814;44.686;10.842;2024-02-21T01:10:12;8.40;99.90
23291;DHT22;11814;44.686;10.842;2024-02-21T01:12:37;8.30;99.90
23291;DHT22;11814;44.686;10.842;2024-02-21T01:15:03;8.40;99.90
23291;DHT22;11814;44.686;10.842;2024-02-21T01:17:30;8.40;99.90
23291;DHT22;11814;44.686;10.842;2024-02-21T01:19:55;8.40;99.90
23291;DHT22;11814;44.686;10.842;2024-02-21T01:22:21;8.40;99.90
23291;DHT22;11814;44.686;10.842;2024-02-21T01:24:46;8.30;99.90
23291;DHT22;11814;44.686;10.842;2024-02-21T01:27:15;8.30;99.90
23291;DHT22;11814;44.686;10.842;2024-02-21T01:29:41;8.30;99.90
23291;DHT22;11814;44.686;10.842;2024-02-21T01:32:06;8.20;99.90
23291;DHT22;11814;44.686;10.842;2024-02-21T01:34:32;8.10;99.90
23291;DHT22;11814;44.686;10.842;2024-02-21T01:36:58;8.10;99.90
23291;DHT22;11814;44.686;10.842;2024-02-21T01:39:24;8.10;99.90
23291;DHT22;11814;44.686;10.842;2024-02-21T01:41:50;7.90;99.90
23291;DHT22;11814;44.686;10.842;2024-02-21T01:44:15;7.80;99.90
23291;DHT22;11814;44.686;10.842;2024-02-21T01:46:41;7.70;99.90
23291;DHT22;11814;44.686;10.842;2024-02-21T01:49:07;7.60;99.90
23291;DHT22;11814;44.686;10.842;2024-02-21T01:51:32;7.70;99.90
23291;DHT22;11814;44.686;10.842;2024-02-21T01:53:58;7.50;99.90
23291;DHT22;11814;44.686;10.842;2024-02-21T01:56:24;7.60;99.90
23291;DHT22;11814;44.686;10.842;2024-02-21T01:58:51;7.50;99.90
23291;DHT22;11814;44.686;10.842;2024-02-21T02:01:17;7.60;99.90
23291;DHT22;11814;44.686;10.842;2024-02-21T02:03:45;7.60;99.90
23291;DHT22;11814;44.686;10.842;2024-02-21T02:06:10;7.50;99.90
23291;DHT22;11814;44.686;10.842;2024-02-21T02:08:36;7.40;99.90
23291;DHT22;11814;44.686;10.842;2024-02-21T02:11:02;7.40;99.90
23291;DHT22;11814;44.686;10.842;2024-02-21T02:13:28;7.30;99.90
23291;DHT22;11814;44.686;10.842;2024-02-21T02:15:54;7.20;99.90
23291;DHT22;11814;44.686;10.842;2024-02-21T02:18:20;7.30;99.90
23291;DHT22;11814;44.686;10.842;2024-02-21T02:20:47;7.20;99.90
23291;DHT22;11814;44.686;10.842;2024-02-21T02:23:29;7.20;99.90
23291;DHT22;11814;44.686;10.842;2024-02-21T02:25:55;7.10;99.90
23291;DHT22;11814;44.686;10.842;2024-02-21T02:28:21;7.10;99.90
23291;DHT22;11814;44.686;10.842;2024-02-21T02:30:47;7.00;99.90
23291;DHT22;11814;44.686;10.842;2024-02-21T02:33:13;7.00;99.90
23291;DHT22;11814;44.686;10.842;2024-02-21T02:35:39;7.00;99.90
23291;DHT22;11814;44.686;10.842;2024-02-21T02:38:05;7.00;99.90
23291;DHT22;11814;44.686;10.842;2024-02-21T02:40:34;7.00;99.90
23291;DHT22;11814;44.686;10.842;2024-02-21T02:43:00;7.00;99.90
23291;DHT22;11814;44.686;10.842;2024-02-21T02:45:26;7.00;99.90
23291;DHT22;11814;44.686;10.842;2024-02-21T02:47:52;7.10;99.90
23291;DHT22;11814;44.686;10.842;2024-02-21T02:50:19;7.10;99.90
23291;DHT22;11814;44.686;10.842;2024-02-21T02:52:45;7.10;99.90
23291;DHT22;11814;44.686;10.842;2024-02-21T02:55:11;7.10;99.90
23291;DHT22;11814;44.686;10.842;2024-02-21T02:57:36;7.10;99.90
23291;DHT22;11814;44.686;10.842;2024-02-21T03:00:02;7.10;99.90
23291;DHT22;11814;44.686;10.842;2024-02-21T03:02:29;7.10;99.90
23291;DHT22;11814;44.686;10.842;2024-02-21T03:04:55;7.10;99.90
23291;DHT22;11814;44.686;10.842;2024-02-21T03:07:23;7.10;99.90
23291;DHT22;11814;44.686;10.842;2024-02-21T03:09:50;7.00;99.90
23291;DHT22;11814;44.686;10.842;2024-02-21T03:12:15;7.00;99.90
23291;DHT22;11814;44.686;10.842;2024-02-21T03:14:49;7.00;99.90
23291;DHT22;11814;44.686;10.842;2024-02-21T03:17:15;6.90;99.90
23291;DHT22;11814;44.686;10.842;2024-02-21T03:19:41;7.00;99.90
23291;DHT22;11814;44.686;10.842;2024-02-21T03:22:06;7.00;99.90
23291;DHT22;11814;44.686;10.842;2024-02-21T03:24:33;7.00;99.90
23291;DHT22;11814;44.686;10.842;2024-02-21T03:26:58;7.00;99.90
23291;DHT22;11814;44.686;10.842;2024-02-21T03:29:24;6.90;99.90
23291;DHT22;11814;44.686;10.842;2024-02-21T03:31:50;6.90;99.90
23291;DHT22;11814;44.686;10.842;2024-02-21T03:34:16;6.90;99.90
23291;DHT22;11814;44.686;10.842;2024-02-21T03:36:41;7.00;99.90
23291;DHT22;11814;44.686;10.842;2024-02-21T03:39:07;7.00;99.90
23291;DHT22;11814;44.686;10.842;2024-02-21T03:41:34;7.00;99.90
23291;DHT22;11814;44.686;10.842;2024-02-21T03:44:00;7.00;99.90
23291;DHT22;11814;44.686;10.842;2024-02-21T03:46:27;7.00;99.90
23291;DHT22;11814;44.686;10.842;2024-02-21T03:48:53;7.10;99.90
23291;DHT22;11814;44.686;10.842;2024-02-21T03:51:18;7.00;99.90
23291;DHT22;11814;44.686;10.842;2024-02-21T03:53:44;7.20;99.90
23291;DHT22;11814;44.686;10.842;2024-02-21T03:56:09;7.10;99.90
23291;DHT22;11814;44.686;10.842;2024-02-21T03:58:35;7.10;99.90
23291;DHT22;11814;44.686;10.842;2024-02-21T04:01:01;7.10;99.90
23291;DHT22;11814;44.686;10.842;2024-02-21T04:03:27;7.00;99.90
23291;DHT22;11814;44.686;10.842;2024-02-21T04:05:53;7.00;99.90
23291;DHT22;11814;44.686;10.842;2024-02-21T04:08:18;7.10;99.90
23291;DHT22;11814;44.686;10.842;2024-02-21T04:10:44;6.90;99.90
23291;DHT22;11814;44.686;10.842;2024-02-21T04:13:10;6.90;99.90
23291;DHT22;11814;44.686;10.842;2024-02-21T04:15:36;6.90;99.90
23291;DHT22;11814;44.686;10.842;2024-02-21T04:18:02;6.90;99.90
23291;DHT22;11814;44.686;10.842;2024-02-21T04:20:31;6.80;99.90
23291;DHT22;11814;44.686;10.842;2024-02-21T04:22:57;6.80;99.90
23291;DHT22;11814;44.686;10.842;2024-02-21T04:25:23;6.70;99.90
23291;DHT22;11814;44.686;10.842;2024-02-21T04:27:49;6.70;99.90
23291;DHT22;11814;44.686;10.842;2024-02-21T04:30:15;6.70;99.90
23291;DHT22;11814;44.686;10.842;2024-02-21T04:32:41;6.70;99.90
23291;DHT22;11814;44.686;10.842;2024-02-21T04:35:07;6.70;99.90
23291;DHT22;11814;44.686;10.842;2024-02-21T04:37:33;6.70;99.90
23291;DHT22;11814;44.686;10.842;2024-02-21T04:39:59;6.70;99.90
23291;DHT22;11814;44.686;10.842;2024-02-21T04:42:25;6.60;99.90
23291;DHT22;11814;44.686;10.842;2024-02-21T04:44:51;6.50;99.90
23291;DHT22;11814;44.686;10.842;2024-02-21T04:47:16;6.50;99.90
23291;DHT22;11814;44.686;10.842;2024-02-21T04:49:42;6.50;99.90
23291;DHT22;11814;44.686;10.842;2024-02-21T04:52:08;6.50;99.90
23291;DHT22;11814;44.686;10.842;2024-02-21T04:54:33;6.50;99.90
23291;DHT22;11814;44.686;10.842;2024-02-21T04:57:01;6.50;99.90
23291;DHT22;11814;44.686;10.842;2024-02-21T04:59:26;6.50;99.90
23291;DHT22;11814;44.686;10.842;2024-02-21T05:01:52;6.50;99.90
23291;DHT22;11814;44.686;10.842;2024-02-21T05:04:18;6.70;99.90
23291;DHT22;11814;44.686;10.842;2024-02-21T05:06:43;6.60;99.90
23291;DHT22;11814;44.686;10.842;2024-02-21T05:09:10;6.60;99.90
23291;DHT22;11814;44.686;10.842;2024-02-21T05:11:36;6.60;99.90
23291;DHT22;11814;44.686;10.842;2024-02-21T05:14:03;6.60;99.90
23291;DHT22;11814;44.686;10.842;2024-02-21T05:16:30;6.60;99.90
23291;DHT22;11814;44.686;10.842;2024-02-21T05:18:55;6.60;99.90
23291;DHT22;11814;44.686;10.842;2024-02-21T05:21:25;6.60;99.90
23291;DHT22;11814;44.686;10.842;2024-02-21T05:23:51;6.50;99.90
23291;DHT22;11814;44.686;10.842;2024-02-21T05:26:24;6.50;99.90
23291;DHT22;11814;44.686;10.842;2024-02-21T05:28:50;6.40;99.90
23291;DHT22;11814;44.686;10.842;2024-02-21T05:31:19;6.30;99.90
23291;DHT22;11814;44.686;10.842;2024-02-21T05:33:46;6.30;99.90
23291;DHT22;11814;44.686;10.842;2024-02-21T05:36:12;6.20;99.90
23291;DHT22;11814;44.686;10.842;2024-02-21T05:38:38;6.20;99.90
23291;DHT22;11814;44.686;10.842;2024-02-21T05:41:04;6.10;99.90
23291;DHT22;11814;44.686;10.842;2024-02-21T05:43:30;6.00;99.90
23291;DHT22;11814;44.686;10.842;2024-02-21T05:45:55;6.00;99.90
23291;DHT22;11814;44.686;10.842;2024-02-21T05:48:24;5.90;99.90
23291;DHT22;11814;44.686;10.842;2024-02-21T05:50:50;5.90;99.90
23291;DHT22;11814;44.686;10.842;2024-02-21T05:53:16;5.90;99.90
23291;DHT22;11814;44.686;10.842;2024-02-21T05:55:42;5.80;99.90
23291;DHT22;11814;44.686;10.842;2024-02-21T05:58:08;5.80;99.90
23291;DHT22;11814;44.686;10.842;2024-02-21T06:00:37;5.70;99.90
23291;DHT22;11814;44.686;10.842;2024-02-21T06:03:03;5.70;99.90
23291;DHT22;11814;44.686;10.842;2024-02-21T06:05:29;5.60;99.90
23291;DHT22;11814;44.686;10.842;2024-02-21T06:07:54;5.60;99.90
23291;DHT22;11814;44.686;10.842;2024-02-21T06:10:20;5.60;99.90
23291;DHT22;11814;44.686;10.842;2024-02-21T06:12:46;5.60;99.90
23291;DHT22;11814;44.686;10.842;2024-02-21T06:15:11;5.60;99.90
23291;DHT22;11814;44.686;10.842;2024-02-21T06:17:37;5.60;99.90
23291;DHT22;11814;44.686;10.842;2024-02-21T06:20:03;5.70;99.90
23291;DHT22;11814;44.686;10.842;2024-02-21T06:22:30;5.70;99.90
23291;DHT22;11814;44.686;10.842;2024-02-21T06:24:56;5.80;99.90
23291;DHT22;11814;44.686;10.842;2024-02-21T06:27:21;5.80;99.90
23291;DHT22;11814;44.686;10.842;2024-02-21T06:29:47;5.90;99.90
23291;DHT22;11814;44.686;10.842;2024-02-21T06:32:12;6.00;99.90
23291;DHT22;11814;44.686;10.842;2024-02-21T06:34:38;6.00;99.90
23291;DHT22;11814;44.686;10.842;2024-02-21T06:37:04;6.10;99.90
23291;DHT22;11814;44.686;10.842;2024-02-21T06:39:29;6.10;99.90
23291;DHT22;11814;44.686;10.842;2024-02-21T06:41:55;6.30;99.90
23291;DHT22;11814;44.686;10.842;2024-02-21T06:44:24;6.50;99.90
23291;DHT22;11814;44.686;10.842;2024-02-21T06:46:50;6.80;99.90
23291;DHT22;11814;44.686;10.842;2024-02-21T06:49:15;7.20;99.90
23291;DHT22;11814;44.686;10.842;2024-02-21T06:51:42;7.40;99.90
23291;DHT22;11814;44.686;10.842;2024-02-21T06:54:08;7.60;99.90
23291;DHT22;11814;44.686;10.842;2024-02-21T06:56:35;7.50;99.90
23291;DHT22;11814;44.686;10.842;2024-02-21T06:59:01;7.70;99.90
23291;DHT22;11814;44.686;10.842;2024-02-21T07:01:29;7.90;99.90
23291;DHT22;11814;44.686;10.842;2024-02-21T07:03:54;8.20;99.90
23291;DHT22;11814;44.686;10.842;2024-02-21T07:06:20;8.60;99.90
23291;DHT22;11814;44.686;10.842;2024-02-21T07:08:45;9.20;99.90
23291;DHT22;11814;44.686;10.842;2024-02-21T07:11:11;9.70;99.90
23291;DHT22;11814;44.686;10.842;2024-02-21T07:13:36;9.80;99.90
23291;DHT22;11814;44.686;10.842;2024-02-21T07:16:02;10.10;99.90
23291;DHT22;11814;44.686;10.842;2024-02-21T07:18:28;10.40;99.90
23291;DHT22;11814;44.686;10.842;2024-02-21T07:20:53;11.10;99.90
23291;DHT22;11814;44.686;10.842;2024-02-21T07:23:19;11.90;99.90
23291;DHT22;11814;44.686;10.842;2024-02-21T07:25:45;12.70;99.90
23291;DHT22;11814;44.686;10.842;2024-02-21T07:28:10;13.30;98.70
23291;DHT22;11814;44.686;10.842;2024-02-21T07:30:36;13.70;95.70
23291;DHT22;11814;44.686;10.842;2024-02-21T07:33:02;14.20;93.50
23291;DHT22;11814;44.686;10.842;2024-02-21T07:35:28;14.60;91.30
23291;DHT22;11814;44.686;10.842;2024-02-21T07:37:53;15.00;90.00
23291;DHT22;11814;44.686;10.842;2024-02-21T07:40:19;15.60;87.40
23291;DHT22;11814;44.686;10.842;2024-02-21T07:42:45;15.70;84.30
23291;DHT22;11814;44.686;10.842;2024-02-21T07:45:10;15.90;82.40
23291;DHT22;11814;44.686;10.842;2024-02-21T07:47:37;16.00;80.70
23291;DHT22;11814;44.686;10.842;2024-02-21T07:50:03;16.20;79.50
23291;DHT22;11814;44.686;10.842;2024-02-21T07:52:29;16.50;78.80
23291;DHT22;11814;44.686;10.842;2024-02-21T07:54:55;16.90;77.50
23291;DHT22;11814;44.686;10.842;2024-02-21T07:57:21;17.20;76.20
23291;DHT22;11814;44.686;10.842;2024-02-21T07:59:47;17.60;76.20
23291;DHT22;11814;44.686;10.842;2024-02-21T08:02:16;18.10;74.20
23291;DHT22;11814;44.686;10.842;2024-02-21T08:04:42;18.70;72.70
23291;DHT22;11814;44.686;10.842;2024-02-21T08:07:08;19.30;71.20
23291;DHT22;11814;44.686;10.842;2024-02-21T08:09:34;19.70;69.50
23291;DHT22;11814;44.686;10.842;2024-02-21T08:12:00;20.10;68.50
23291;DHT22;11814;44.686;10.842;2024-02-21T08:14:25;20.60;67.20
23291;DHT22;11814;44.686;10.842;2024-02-21T08:16:51;21.00;65.00
23291;DHT22;11814;44.686;10.842;2024-02-21T08:19:19;21.50;63.50
23291;DHT22;11814;44.686;10.842;2024-02-21T08:21:45;22.00;61.20
23291;DHT22;11814;44.686;10.842;2024-02-21T08:24:14;22.50;59.20
23291;DHT22;11814;44.686;10.842;2024-02-21T08:26:46;22.90;57.70
23291;DHT22;11814;44.686;10.842;2024-02-21T08:29:12;23.40;55.60
23291;DHT22;11814;44.686;10.842;2024-02-21T08:31:38;23.50;54.60
23291;DHT22;11814;44.686;10.842;2024-02-21T08:34:03;23.90;54.00
23291;DHT22;11814;44.686;10.842;2024-02-21T08:36:33;24.20;53.00
23291;DHT22;11814;44.686;10.842;2024-02-21T08:39:00;24.60;52.00
23291;DHT22;11814;44.686;10.842;2024-02-21T08:41:26;25.00;51.20
23291;DHT22;11814;44.686;10.842;2024-02-21T08:43:52;25.30;50.60
23291;DHT22;11814;44.686;10.842;2024-02-21T08:46:22;25.70;50.00
23291;DHT22;11814;44.686;10.842;2024-02-21T08:48:50;25.90;49.10
23291;DHT22;11814;44.686;10.842;2024-02-21T08:51:16;25.90;48.60
23291;DHT22;11814;44.686;10.842;2024-02-21T08:53:43;26.00;48.50
23291;DHT22;11814;44.686;10.842;2024-02-21T08:56:09;26.40;48.20
23291;DHT22;11814;44.686;10.842;2024-02-21T08:58:36;26.60;47.10
23291;DHT22;11814;44.686;10.842;2024-02-21T09:01:03;26.70;46.60
23291;DHT22;11814;44.686;10.842;2024-02-21T09:03:38;26.80;46.70
23291;DHT22;11814;44.686;10.842;2024-02-21T09:06:07;26.90;46.20
23291;DHT22;11814;44.686;10.842;2024-02-21T09:08:33;26.90;45.70
23291;DHT22;11814;44.686;10.842;2024-02-21T09:11:02;26.80;45.50
23291;DHT22;11814;44.686;10.842;2024-02-21T09:13:28;26.60;45.60
23291;DHT22;11814;44.686;10.842;2024-02-21T09:15:54;26.90;45.50
23291;DHT22;11814;44.686;10.842;2024-02-21T09:18:19;27.20;45.10
23291;DHT22;11814;44.686;10.842;2024-02-21T09:20:45;27.40;44.80
23291;DHT22;11814;44.686;10.842;2024-02-21T09:23:12;27.60;44.20
23291;DHT22;11814;44.686;10.842;2024-02-21T09:25:37;27.80;43.70
23291;DHT22;11814;44.686;10.842;2024-02-21T09:28:03;27.80;43.40
23291;DHT22;11814;44.686;10.842;2024-02-21T09:30:29;28.00;43.20
23291;DHT22;11814;44.686;10.842;2024-02-21T09:32:55;28.10;42.90
23291;DHT22;11814;44.686;10.842;2024-02-21T09:35:24;28.20;42.60
23291;DHT22;11814;44.686;10.842;2024-02-21T09:37:52;28.30;42.20
23291;DHT22;11814;44.686;10.842;2024-02-21T09:40:17;28.50;42.00
23291;DHT22;11814;44.686;10.842;2024-02-21T09:42:44;28.90;41.70
23291;DHT22;11814;44.686;10.842;2024-02-21T09:45:23;29.20;41.10
23291;DHT22;11814;44.686;10.842;2024-02-21T09:50:36;29.30;40.50
23291;DHT22;11814;44.686;10.842;2024-02-21T09:53:04;29.10;40.60
23291;DHT22;11814;44.686;10.842;2024-02-21T09:55:33;29.10;40.80
23291;DHT22;11814;44.686;10.842;2024-02-21T09:58:01;29.20;40.60
23291;DHT22;11814;44.686;10.842;2024-02-21T10:00:27;29.30;40.30
23291;DHT22;11814;44.686;10.842;2024-02-21T10:02:54;29.00;40.50
23291;DHT22;11814;44.686;10.842;2024-02-21T10:05:19;29.10;40.30
23291;DHT22;11814;44.686;10.842;2024-02-21T10:07:46;29.00;40.10
23291;DHT22;11814;44.686;10.842;2024-02-21T10:10:12;28.70;39.90
23291;DHT22;11814;44.686;10.842;2024-02-21T10:12:48;28.60;40.30
23291;DHT22;11814;44.686;10.842;2024-02-21T10:15:20;28.70;40.70
23291;DHT22;11814;44.686;10.842;2024-02-21T10:17:47;29.10;40.90
23291;DHT22;11814;44.686;10.842;2024-02-21T10:20:12;29.20;40.60
23291;DHT22;11814;44.686;10.842;2024-02-21T10:22:39;29.20;40.40
23291;DHT22;11814;44.686;10.842;2024-02-21T10:25:12;29.40;40.40
23291;DHT22;11814;44.686;10.842;2024-02-21T10:27:39;29.70;40.40
23291;DHT22;11814;44.686;10.842;2024-02-21T10:30:12;30.00;40.00
23291;DHT22;11814;44.686;10.842;2024-02-21T10:32:49;30.30;39.70
23291;DHT22;11814;44.686;10.842;2024-02-21T10:35:14;30.40;39.70
23291;DHT22;11814;44.686;10.842;2024-02-21T10:37:50;30.50;39.70
23291;DHT22;11814;44.686;10.842;2024-02-21T10:40:22;30.70;39.10
23291;DHT22;11814;44.686;10.842;2024-02-21T10:42:48;30.60;39.10
23291;DHT22;11814;44.686;10.842;2024-02-21T10:45:16;30.70;38.80
23291;DHT22;11814;44.686;10.842;2024-02-21T10:47:47;30.40;38.70
23291;DHT22;11814;44.686;10.842;2024-02-21T10:50:18;29.80;39.00
23291;DHT22;11814;44.686;10.842;2024-02-21T10:53:01;29.20;39.90
23291;DHT22;11814;44.686;10.842;2024-02-21T10:55:38;29.30;40.30
23291;DHT22;11814;44.686;10.842;2024-02-21T10:58:05;29.00;40.50
23291;DHT22;11814;44.686;10.842;2024-02-21T11:00:31;28.90;40.90
23291;DHT22;11814;44.686;10.842;2024-02-21T11:02:58;29.10;40.80
23291;DHT22;11814;44.686;10.842;2024-02-21T11:05:24;29.10;40.70
23291;DHT22;11814;44.686;10.842;2024-02-21T11:07:51;29.30;40.70
23291;DHT22;11814;44.686;10.842;2024-02-21T11:10:26;29.40;40.40
23291;DHT22;11814;44.686;10.842;2024-02-21T11:12:53;29.10;40.30
23291;DHT22;11814;44.686;10.842;2024-02-21T11:15:25;29.00;40.50
23291;DHT22;11814;44.686;10.842;2024-02-21T11:17:56;29.20;40.60
23291;DHT22;11814;44.686;10.842;2024-02-21T11:20:32;29.20;40.80
23291;DHT22;11814;44.686;10.842;2024-02-21T11:22:58;29.20;41.00
23291;DHT22;11814;44.686;10.842;2024-02-21T11:25:24;28.80;41.00
23291;DHT22;11814;44.686;10.842;2024-02-21T11:28:02;28.50;41.30
23291;DHT22;11814;44.686;10.842;2024-02-21T11:30:31;28.40;41.50
23291;DHT22;11814;44.686;10.842;2024-02-21T11:33:02;28.60;41.70
23291;DHT22;11814;44.686;10.842;2024-02-21T11:35:35;28.80;41.40
23291;DHT22;11814;44.686;10.842;2024-02-21T11:38:11;28.80;41.80
23291;DHT22;11814;44.686;10.842;2024-02-21T11:40:40;28.50;41.60
23291;DHT22;11814;44.686;10.842;2024-02-21T11:43:07;28.30;42.00
23291;DHT22;11814;44.686;10.842;2024-02-21T11:45:33;28.10;42.50
23291;DHT22;11814;44.686;10.842;2024-02-21T11:47:59;27.90;42.90
23291;DHT22;11814;44.686;10.842;2024-02-21T11:50:31;27.60;43.20
23291;DHT22;11814;44.686;10.842;2024-02-21T11:52:57;27.40;43.30
23291;DHT22;11814;44.686;10.842;2024-02-21T11:55:23;27.10;43.50
23291;DHT22;11814;44.686;10.842;2024-02-21T11:57:49;26.80;43.60
23291;DHT22;11814;44.686;10.842;2024-02-21T12:00:19;26.40;44.90
23291;DHT22;11814;44.686;10.842;2024-02-21T12:02:50;26.10;44.40
23291;DHT22;11814;44.686;10.842;2024-02-21T12:05:16;25.60;44.90
23291;DHT22;11814;44.686;10.842;2024-02-21T12:07:42;25.50;45.40
23291;DHT22;11814;44.686;10.842;2024-02-21T12:10:11;25.50;45.30
23291;DHT22;11814;44.686;10.842;2024-02-21T12:12:37;25.40;45.10
23291;DHT22;11814;44.686;10.842;2024-02-21T12:15:04;25.10;45.30
23291;DHT22;11814;44.686;10.842;2024-02-21T12:17:32;24.80;45.60
23291;DHT22;11814;44.686;10.842;2024-02-21T12:19:58;24.60;45.90
23291;DHT22;11814;44.686;10.842;2024-02-21T12:22:25;24.30;46.30
23291;DHT22;11814;44.686;10.842;2024-02-21T12:24:51;24.00;46.90
23291;DHT22;11814;44.686;10.842;2024-02-21T12:27:16;24.10;47.70
23291;DHT22;11814;44.686;10.842;2024-02-21T12:29:42;24.30;47.70
23291;DHT22;11814;44.686;10.842;2024-02-21T12:32:07;24.40;47.80
23291;DHT22;11814;44.686;10.842;2024-02-21T12:34:33;24.50;47.70
23291;DHT22;11814;44.686;10.842;2024-02-21T12:36:59;24.50;47.40
23291;DHT22;11814;44.686;10.842;2024-02-21T12:39:25;24.60;47.50
23291;DHT22;11814;44.686;10.842;2024-02-21T12:41:54;24.60;47.40
23291;DHT22;11814;44.686;10.842;2024-02-21T12:44:21;24.60;47.40
23291;DHT22;11814;44.686;10.842;2024-02-21T12:46:47;24.70;46.90
23291;DHT22;11814;44.686;10.842;2024-02-21T12:49:17;24.70;46.80
23291;DHT22;11814;44.686;10.842;2024-02-21T12:51:43;24.70;46.90
23291;DHT22;11814;44.686;10.842;2024-02-21T12:54:09;24.50;47.20
23291;DHT22;11814;44.686;10.842;2024-02-21T12:56:36;24.40;47.40
23291;DHT22;11814;44.686;10.842;2024-02-21T12:59:02;24.40;47.50
23291;DHT22;11814;44.686;10.842;2024-02-21T13:01:28;24.30;47.80
23291;DHT22;11814;44.686;10.842;2024-02-21T13:03:53;24.20;48.10
23291;DHT22;11814;44.686;10.842;2024-02-21T13:06:19;24.20;48.20
23291;DHT22;11814;44.686;10.842;2024-02-21T13:08:45;24.20;48.20
23291;DHT22;11814;44.686;10.842;2024-02-21T13:11:12;24.20;48.30
23291;DHT22;11814;44.686;10.842;2024-02-21T13:13:38;24.10;48.20
23291;DHT22;11814;44.686;10.842;2024-02-21T13:16:04;23.90;48.10
23291;DHT22;11814;44.686;10.842;2024-02-21T13:18:30;23.70;48.70
23291;DHT22;11814;44.686;10.842;2024-02-21T13:20:56;23.70;48.90
23291;DHT22;11814;44.686;10.842;2024-02-21T13:23:21;23.70;48.70
23291;DHT22;11814;44.686;10.842;2024-02-21T13:25:47;23.70;48.50
23291;DHT22;11814;44.686;10.842;2024-02-21T13:28:13;23.60;48.70
23291;DHT22;11814;44.686;10.842;2024-02-21T13:30:40;23.50;49.30
23291;DHT22;11814;44.686;10.842;2024-02-21T13:33:07;23.40;49.50
23291;DHT22;11814;44.686;10.842;2024-02-21T13:35:32;23.40;49.60
23291;DHT22;11814;44.686;10.842;2024-02-21T13:37:58;23.30;49.60
23291;DHT22;11814;44.686;10.842;2024-02-21T13:40:24;23.40;49.60
23291;DHT22;11814;44.686;10.842;2024-02-21T13:42:50;23.30;49.80
23291;DHT22;11814;44.686;10.842;2024-02-21T13:45:16;23.30;49.90
23291;DHT22;11814;44.686;10.842;2024-02-21T13:47:42;23.30;50.00
23291;DHT22;11814;44.686;10.842;2024-02-21T13:50:08;23.20;50.10
23291;DHT22;11814;44.686;10.842;2024-02-21T13:52:37;23.20;49.90
23291;DHT22;11814;44.686;10.842;2024-02-21T13:55:03;23.10;49.90
23291;DHT22;11814;44.686;10.842;2024-02-21T13:57:29;23.10;50.00
23291;DHT22;11814;44.686;10.842;2024-02-21T13:59:55;23.00;50.20
23291;DHT22;11814;44.686;10.842;2024-02-21T14:02:20;22.90;50.20
23291;DHT22;11814;44.686;10.842;2024-02-21T14:04:46;22.80;50.00
23291;DHT22;11814;44.686;10.842;2024-02-21T14:07:12;22.70;50.20
23291;DHT22;11814;44.686;10.842;2024-02-21T14:09:38;22.60;50.30
23291;DHT22;11814;44.686;10.842;2024-02-21T14:12:04;22.40;50.30
23291;DHT22;11814;44.686;10.842;2024-02-21T14:14:36;22.10;50.60
23291;DHT22;11814;44.686;10.842;2024-02-21T14:17:02;22.00;51.10
23291;DHT22;11814;44.686;10.842;2024-02-21T14:19:29;21.90;51.50
23291;DHT22;11814;44.686;10.842;2024-02-21T14:21:54;21.90;51.80
23291;DHT22;11814;44.686;10.842;2024-02-21T14:24:20;21.90;52.00
23291;DHT22;11814;44.686;10.842;2024-02-21T14:26:46;21.90;51.70
23291;DHT22;11814;44.686;10.842;2024-02-21T14:29:11;21.80;51.60
23291;DHT22;11814;44.686;10.842;2024-02-21T14:31:38;21.80;51.60
23291;DHT22;11814;44.686;10.842;2024-02-21T14:34:03;21.70;51.60
23291;DHT22;11814;44.686;10.842;2024-02-21T14:36:29;21.70;52.10
23291;DHT22;11814;44.686;10.842;2024-02-21T14:38:55;21.70;52.20
23291;DHT22;11814;44.686;10.842;2024-02-21T14:41:20;21.50;51.80
23291;DHT22;11814;44.686;10.842;2024-02-21T14:43:46;21.10;52.10
23291;DHT22;11814;44.686;10.842;2024-02-21T14:46:12;21.10;52.70
23291;DHT22;11814;44.686;10.842;2024-02-21T14:48:38;21.10;52.90
23291;DHT22;11814;44.686;10.842;2024-02-21T14:51:04;21.10;53.60
23291;DHT22;11814;44.686;10.842;2024-02-21T14:53:29;21.00;53.00
23291;DHT22;11814;44.686;10.842;2024-02-21T14:55:56;21.00;53.30
23291;DHT22;11814;44.686;10.842;2024-02-21T14:58:23;20.90;53.30
23291;DHT22;11814;44.686;10.842;2024-02-21T15:00:49;20.80;53.60
23291;DHT22;11814;44.686;10.842;2024-02-21T15:03:16;20.70;53.70
23291;DHT22;11814;44.686;10.842;2024-02-21T15:05:45;20.60;53.70
23291;DHT22;11814;44.686;10.842;2024-02-21T15:08:11;20.50;53.90
23291;DHT22;11814;44.686;10.842;2024-02-21T15:10:37;20.50;54.30
23291;DHT22;11814;44.686;10.842;2024-02-21T15:13:03;20.40;54.50
23291;DHT22;11814;44.686;10.842;2024-02-21T15:15:29;20.30;54.40
23291;DHT22;11814;44.686;10.842;2024-02-21T15:17:56;20.30;54.40
23291;DHT22;11814;44.686;10.842;2024-02-21T15:20:22;20.20;54.60
23291;DHT22;11814;44.686;10.842;2024-02-21T15:22:47;20.10;54.80